Time;durP1;ratioP1;P1;durP2;ratioP2;P2;SDS_P1;SDS_P2;PMS_P1;PMS_P2;Temp;Humidity;BMP_temperature;BMP_pressure;BME280_temperature;BME280_humidity;BME280_pressure;Samples;Min_cycle;Max_cycle;Signal;HPM_P1;HPM_P2
2021/06/03 00:01:14;;;;;;;4.80;2.20;;;;;;;;;;4364975;32;20066;-80
2021/06/03 00:03:41;;;;;;;4.47;2.12;;;;;;;;;;4358811;32;20504;-78
2021/06/03 00:06:09;;;;;;;4.40;2.90;;;;;;;;;;4357951;32;20074;-79
2021/06/03 00:08:35;;;;;;;4.12;2.30;;;;;;;;;;4364398;32;20070;-76
2021/06/03 00:11:11;;;;;;;2.62;2.10;;;;;;;;;;4351578;32;20175;-78
2021/06/03 00:13:39;;;;;;;5.72;2.65;;;;;;;;;;4347395;32;20055;-78
2021/06/03 00:16:13;;;;;;;4.22;2.15;;;;;;;;;;4358230;32;20070;-79
2021/06/03 00:18:39;;;;;;;5.45;2.58;;;;;;;;;;4353474;32;20070;-79
2021/06/03 00:21:06;;;;;;;3.45;2.45;;;;;;;;;;4361150;32;20110;-78
2021/06/03 00:23:33;;;;;;;4.15;2.30;;;;;;;;;;4354392;32;20106;-75
2021/06/03 00:25:59;;;;;;;6.20;2.33;;;;;;;;;;4356658;32;20086;-77
2021/06/03 00:28:26;;;;;;;2.95;2.00;;;;;;;;;;4361509;32;20059;-77
2021/06/03 00:30:52;;;;;;;5.07;2.50;;;;;;;;;;4362766;32;20162;-79
2021/06/03 00:33:19;;;;;;;3.65;2.33;;;;;;;;;;4372767;32;20504;-79
2021/06/03 00:35:45;;;;;;;2.83;2.12;;;;;;;;;;4368173;32;20083;-76
2021/06/03 00:38:12;;;;;;;6.50;2.42;;;;;;;;;;4366928;32;20070;-78
2021/06/03 00:40:39;;;;;;;3.85;2.40;;;;;;;;;;4373403;32;20076;-78
2021/06/03 00:43:06;;;;;;;4.45;2.33;;;;;;;;;;4363396;32;20481;-76
2021/06/03 00:45:35;;;;;;;2.40;2.00;;;;;;;;;;4346528;32;20066;-77
2021/06/03 00:48:01;;;;;;;2.97;2.30;;;;;;;;;;4356903;32;20081;-76
2021/06/03 00:50:33;;;;;;;3.72;2.62;;;;;;;;;;4340992;32;20578;-77
2021/06/03 00:53:10;;;;;;;7.85;2.47;;;;;;;;;;4337446;32;20089;-78
2021/06/03 00:55:37;;;;;;;3.80;2.30;;;;;;;;;;4342842;32;20085;-78
2021/06/03 00:58:04;;;;;;;6.30;2.20;;;;;;;;;;4343069;32;20102;-80
2021/06/03 01:00:30;;;;;;;4.57;2.05;;;;;;;;;;4320573;32;20100;-80
2021/06/03 01:02:57;;;;;;;3.20;2.20;;;;;;;;;;4348657;32;20083;-79
2021/06/03 01:05:26;;;;;;;3.92;2.25;;;;;;;;;;4340475;32;20182;-80
2021/06/03 01:07:53;;;;;;;4.22;2.20;;;;;;;;;;4363678;32;20168;-78
2021/06/03 01:10:32;;;;;;;5.30;2.35;;;;;;;;;;4353409;32;20081;-79
2021/06/03 01:13:08;;;;;;;5.35;2.15;;;;;;;;;;4342987;32;20080;-79
2021/06/03 01:15:34;;;;;;;3.15;2.30;;;;;;;;;;4367622;32;20054;-78
2021/06/03 01:18:02;;;;;;;4.03;2.37;;;;;;;;;;4343121;32;20074;-78
2021/06/03 01:20:33;;;;;;;5.37;2.53;;;;;;;;;;4347241;32;20070;-79
2021/06/03 01:23:20;;;;;;;5.60;2.22;;;;;;;;;;4339606;32;20093;-80
2021/06/03 01:25:46;;;;;;;5.20;2.40;;;;;;;;;;4352444;32;20118;-77
2021/06/03 01:28:13;;;;;;;4.80;2.58;;;;;;;;;;4323716;32;20069;-79
2021/06/03 01:30:49;;;;;;;4.97;2.30;;;;;;;;;;4350755;32;20452;-77
2021/06/03 01:33:20;;;;;;;3.58;2.12;;;;;;;;;;4336740;32;20181;-76
2021/06/03 01:35:49;;;;;;;4.93;2.78;;;;;;;;;;4354011;32;20085;-74
2021/06/03 01:38:18;;;;;;;4.85;2.60;;;;;;;;;;4342528;32;20114;-79
2021/06/03 01:40:45;;;;;;;4.60;2.30;;;;;;;;;;4335845;32;20081;-77
2021/06/03 01:43:13;;;;;;;4.68;2.65;;;;;;;;;;4335790;32;20492;-79
2021/06/03 01:45:40;;;;;;;5.72;2.80;;;;;;;;;;4329128;32;20587;-78
2021/06/03 01:48:07;;;;;;;5.47;2.30;;;;;;;;;;4342479;32;20528;-80
2021/06/03 01:50:34;;;;;;;4.45;2.60;;;;;;;;;;4371863;32;20561;-77
2021/06/03 01:53:01;;;;;;;6.53;2.80;;;;;;;;;;4363291;32;20497;-78
2021/06/03 01:55:28;;;;;;;3.42;2.40;;;;;;;;;;4358335;32;20101;-79
2021/06/03 01:57:56;;;;;;;4.75;2.47;;;;;;;;;;4337524;32;20070;-79
2021/06/03 02:00:23;;;;;;;3.87;2.75;;;;;;;;;;4348438;32;20143;-80
2021/06/03 02:02:49;;;;;;;4.43;2.80;;;;;;;;;;4348117;32;20046;-76
2021/06/03 02:05:16;;;;;;;5.18;2.60;;;;;;;;;;4350969;32;20517;-77
2021/06/03 02:07:43;;;;;;;3.37;2.42;;;;;;;;;;4348360;32;20080;-79
2021/06/03 02:10:10;;;;;;;8.00;2.83;;;;;;;;;;4366489;32;20082;-79
2021/06/03 02:12:41;;;;;;;4.20;2.42;;;;;;;;;;4347548;32;20523;-76
2021/06/03 02:15:08;;;;;;;3.50;2.33;;;;;;;;;;4360017;32;20067;-79
2021/06/03 02:17:42;;;;;;;5.15;2.78;;;;;;;;;;4340744;32;20114;-78
2021/06/03 02:20:10;;;;;;;4.18;3.00;;;;;;;;;;4353829;32;20181;-77
2021/06/03 02:22:37;;;;;;;3.80;2.42;;;;;;;;;;4359177;32;20476;-76
2021/06/03 02:25:07;;;;;;;4.30;2.40;;;;;;;;;;4362590;32;20166;-79
2021/06/03 02:27:34;;;;;;;4.57;3.08;;;;;;;;;;4356775;32;20073;-79
2021/06/03 02:30:01;;;;;;;6.47;2.67;;;;;;;;;;4347510;32;20073;-79
2021/06/03 02:32:31;;;;;;;5.75;2.72;;;;;;;;;;4358471;32;20086;-77
2021/06/03 02:34:58;;;;;;;5.60;2.65;;;;;;;;;;4362585;32;20077;-80
2021/06/03 02:37:24;;;;;;;4.90;2.87;;;;;;;;;;4354728;32;20073;-79
2021/06/03 02:39:58;;;;;;;7.03;3.03;;;;;;;;;;4342239;32;20073;-78
2021/06/03 02:42:25;;;;;;;4.12;2.60;;;;;;;;;;4340190;32;20067;-78
2021/06/03 02:44:51;;;;;;;3.20;2.75;;;;;;;;;;4348580;32;20092;-80
2021/06/03 02:47:18;;;;;;;4.18;2.58;;;;;;;;;;4350249;32;20489;-80
2021/06/03 02:49:45;;;;;;;4.20;3.00;;;;;;;;;;4347703;32;20144;-76
2021/06/03 02:52:11;;;;;;;3.47;2.30;;;;;;;;;;4353218;32;20156;-80
2021/06/03 02:54:38;;;;;;;5.90;2.60;;;;;;;;;;4347737;32;20085;-80
2021/06/03 02:57:05;;;;;;;3.90;2.55;;;;;;;;;;4372870;32;20078;-77
2021/06/03 02:59:31;;;;;;;7.00;2.92;;;;;;;;;;4347138;32;20066;-79
2021/06/03 03:01:59;;;;;;;4.87;2.60;;;;;;;;;;4367355;32;20074;-79
2021/06/03 03:04:25;;;;;;;3.78;2.55;;;;;;;;;;4351655;32;20066;-77
2021/06/03 03:06:52;;;;;;;4.53;2.50;;;;;;;;;;4360789;32;20074;-79
2021/06/03 03:09:18;;;;;;;5.70;2.62;;;;;;;;;;4358922;32;20070;-80
2021/06/03 03:11:45;;;;;;;4.95;2.78;;;;;;;;;;4367310;32;20093;-79
2021/06/03 03:14:11;;;;;;;4.75;2.78;;;;;;;;;;4332032;32;20062;-79
2021/06/03 03:16:38;;;;;;;5.85;2.50;;;;;;;;;;4359988;32;20074;-79
2021/06/03 03:19:04;;;;;;;5.80;2.80;;;;;;;;;;4350432;32;20084;-77
2021/06/03 03:21:31;;;;;;;3.05;2.25;;;;;;;;;;4374901;32;20079;-76
2021/06/03 03:23:58;;;;;;;4.07;2.70;;;;;;;;;;4351561;32;20069;-76
2021/06/03 03:26:24;;;;;;;4.47;2.53;;;;;;;;;;4375768;32;20059;-78
2021/06/03 03:28:51;;;;;;;2.50;1.40;;;;;;;;;;4345521;32;20089;-78
2021/06/03 03:31:17;;;;;;;3.17;2.60;;;;;;;;;;4347463;32;20072;-76
2021/06/03 03:33:44;;;;;;;5.40;2.53;;;;;;;;;;4359317;32;20082;-77
2021/06/03 03:36:10;;;;;;;2.92;2.12;;;;;;;;;;4342190;32;20535;-79
2021/06/03 03:38:37;;;;;;;7.00;2.70;;;;;;;;;;4351814;32;20082;-78
2021/06/03 03:41:04;;;;;;;7.22;2.85;;;;;;;;;;4359650;32;20108;-78
2021/06/03 03:43:30;;;;;;;3.95;2.42;;;;;;;;;;4359004;32;20065;-80
2021/06/03 03:45:57;;;;;;;5.57;2.47;;;;;;;;;;4367191;32;20081;-79
2021/06/03 03:48:23;;;;;;;6.75;2.83;;;;;;;;;;4351540;32;20082;-78
2021/06/03 03:50:50;;;;;;;3.20;2.10;;;;;;;;;;4359554;32;20158;-79
2021/06/03 03:53:16;;;;;;;4.60;2.05;;;;;;;;;;4326361;32;20078;-78
2021/06/03 03:55:43;;;;;;;6.40;2.90;;;;;;;;;;4369069;32;20051;-80
2021/06/03 03:58:09;;;;;;;4.30;2.20;;;;;;;;;;4362394;32;20074;-80
2021/06/03 04:00:36;;;;;;;5.80;2.75;;;;;;;;;;4361625;32;20078;-77
2021/06/03 04:03:05;;;;;;;8.45;3.28;;;;;;;;;;4352272;32;20551;-78
2021/06/03 04:05:32;;;;;;;8.10;2.95;;;;;;;;;;4374267;32;20074;-80
2021/06/03 04:07:58;;;;;;;7.00;2.90;;;;;;;;;;4364064;32;20077;-79
2021/06/03 04:10:25;;;;;;;6.62;3.00;;;;;;;;;;4350259;32;20094;-78
2021/06/03 04:12:51;;;;;;;2.90;2.42;;;;;;;;;;4361717;32;20069;-80
2021/06/03 04:15:18;;;;;;;1.92;1.60;;;;;;;;;;4361896;32;20070;-80
2021/06/03 04:17:45;;;;;;;5.25;2.92;;;;;;;;;;4368655;32;20162;-78
2021/06/03 04:20:19;;;;;;;9.15;3.00;;;;;;;;;;4343384;32;20118;-80
2021/06/03 04:22:46;;;;;;;8.27;3.15;;;;;;;;;;4349611;32;20155;-78
2021/06/03 04:25:13;;;;;;;7.78;3.35;;;;;;;;;;4340686;32;20082;-78
2021/06/03 04:27:40;;;;;;;6.68;3.10;;;;;;;;;;4358136;32;20548;-78
2021/06/03 04:30:12;;;;;;;5.50;2.85;;;;;;;;;;4362046;32;20098;-77
2021/06/03 04:32:39;;;;;;;3.10;2.53;;;;;;;;;;4362297;32;20513;-77
2021/06/03 04:35:06;;;;;;;5.22;2.70;;;;;;;;;;4388482;32;20054;-77
2021/06/03 04:37:32;;;;;;;11.07;3.05;;;;;;;;;;4377351;32;20073;-77
2021/06/03 04:39:59;;;;;;;11.85;3.08;;;;;;;;;;4379278;32;20584;-79
2021/06/03 04:42:25;;;;;;;5.55;2.85;;;;;;;;;;4362914;32;20082;-78
2021/06/03 04:44:52;;;;;;;8.45;3.00;;;;;;;;;;4362911;32;20108;-76
2021/06/03 04:47:19;;;;;;;10.73;3.25;;;;;;;;;;4393145;32;20070;-77
2021/06/03 04:49:45;;;;;;;6.00;3.37;;;;;;;;;;4376243;32;20067;-79
2021/06/03 04:52:31;;;;;;;6.90;2.55;;;;;;;;;;4375770;32;20216;-79
2021/06/03 04:55:09;;;;;;;6.30;2.53;;;;;;;;;;4383945;32;20133;-78
2021/06/03 04:57:35;;;;;;;3.92;2.55;;;;;;;;;;4342237;32;20058;-78
2021/06/03 05:00:06;;;;;;;5.30;1.73;;;;;;;;;;4359769;32;20040;-79
2021/06/03 05:02:32;;;;;;;27.40;4.03;;;;;;;;;;4374975;32;20090;-77
2021/06/03 05:04:59;;;;;;;13.65;3.83;;;;;;;;;;4368651;32;20055;-81
2021/06/03 05:07:26;;;;;;;6.15;2.08;;;;;;;;;;4366113;32;20487;-78
2021/06/03 05:09:52;;;;;;;3.12;2.00;;;;;;;;;;4360068;32;20063;-78
2021/06/03 05:12:19;;;;;;;6.05;2.28;;;;;;;;;;4370733;32;20122;-80
2021/06/03 05:14:45;;;;;;;10.10;2.75;;;;;;;;;;4349290;32;20078;-77
2021/06/03 05:17:12;;;;;;;6.35;2.90;;;;;;;;;;4360620;32;20070;-79
2021/06/03 05:19:38;;;;;;;12.88;2.90;;;;;;;;;;4354844;32;20082;-77
2021/06/03 05:22:05;;;;;;;16.33;3.45;;;;;;;;;;4367291;32;20082;-79
2021/06/03 05:24:32;;;;;;;14.87;3.15;;;;;;;;;;4372079;32;20082;-77
2021/06/03 05:26:59;;;;;;;6.35;2.35;;;;;;;;;;4349652;32;20615;-75
2021/06/03 05:29:26;;;;;;;42.13;5.20;;;;;;;;;;4336132;32;20478;-77
2021/06/03 05:31:52;;;;;;;24.65;3.42;;;;;;;;;;4355699;32;20081;-79
2021/06/03 05:34:19;;;;;;;8.82;2.58;;;;;;;;;;4360424;32;20152;-79
2021/06/03 05:36:46;;;;;;;8.48;1.95;;;;;;;;;;4368667;32;20158;-80
2021/06/03 05:39:12;;;;;;;5.53;1.55;;;;;;;;;;4363965;32;20090;-76
2021/06/03 05:41:39;;;;;;;29.35;5.05;;;;;;;;;;4369758;32;20075;-81
2021/06/03 05:44:06;;;;;;;3.37;1.40;;;;;;;;;;4352555;32;20460;-79
2021/06/03 05:46:33;;;;;;;16.10;3.65;;;;;;;;;;4359235;32;20101;-77
2021/06/03 05:49:01;;;;;;;23.45;3.37;;;;;;;;;;4338255;32;20085;-79
2021/06/03 05:51:28;;;;;;;15.05;3.35;;;;;;;;;;4348669;32;20078;-79
2021/06/03 05:53:54;;;;;;;6.32;1.58;;;;;;;;;;4360349;32;20074;-80
2021/06/03 05:56:22;;;;;;;9.50;2.42;;;;;;;;;;4358075;32;20100;-80
2021/06/03 05:58:49;;;;;;;12.98;2.90;;;;;;;;;;4351825;32;20173;-77
2021/06/03 06:01:15;;;;;;;17.23;3.53;;;;;;;;;;4372358;32;20522;-79
2021/06/03 06:03:46;;;;;;;14.18;3.47;;;;;;;;;;4354398;32;20081;-81
2021/06/03 06:08:42;;;;;;;20.77;4.10;;;;;;;;;;4374806;32;20154;-80
2021/06/03 06:11:09;;;;;;;9.80;2.47;;;;;;;;;;4362834;32;20105;-79
2021/06/03 06:13:35;;;;;;;6.45;2.62;;;;;;;;;;4369685;32;20066;-78
2021/06/03 06:16:02;;;;;;;3.85;1.52;;;;;;;;;;4355570;32;20051;-70
2021/06/03 06:18:29;;;;;;;37.63;6.70;;;;;;;;;;4350054;32;20075;-77
2021/06/03 06:20:56;;;;;;;11.70;2.83;;;;;;;;;;4350743;32;20094;-74
2021/06/03 06:23:23;;;;;;;15.30;3.78;;;;;;;;;;4352468;32;20527;-76
2021/06/03 06:25:49;;;;;;;7.53;2.50;;;;;;;;;;4351349;32;20157;-80
2021/06/03 06:28:16;;;;;;;12.50;3.70;;;;;;;;;;4347695;32;20075;-76
2021/06/03 06:30:52;;;;;;;23.35;3.85;;;;;;;;;;3834552;37;20262;-78
2021/06/03 06:33:20;;;;;;;10.52;2.75;;;;;;;;;;4377178;32;20506;-78
2021/06/03 06:35:49;;;;;;;13.82;2.95;;;;;;;;;;4396758;32;20061;-75
2021/06/03 06:38:16;;;;;;;14.25;3.90;;;;;;;;;;4390753;32;20076;-78
2021/06/03 06:40:43;;;;;;;18.05;3.58;;;;;;;;;;4380124;32;20076;-77
2021/06/03 06:43:10;;;;;;;8.30;2.67;;;;;;;;;;4374549;32;20150;-76
2021/06/03 06:45:37;;;;;;;12.15;3.58;;;;;;;;;;4376016;32;20433;-76
2021/06/03 06:48:05;;;;;;;4.57;1.60;;;;;;;;;;4381448;32;20088;-75
2021/06/03 06:50:33;;;;;;;6.68;1.60;;;;;;;;;;4367445;32;20093;-76
2021/06/03 06:52:59;;;;;;;5.68;2.25;;;;;;;;;;4368469;32;20082;-77
2021/06/03 06:55:26;;;;;;;6.75;1.77;;;;;;;;;;4370018;32;20074;-75
2021/06/03 06:57:53;;;;;;;18.30;3.65;;;;;;;;;;4381383;32;20062;-77
2021/06/03 07:00:24;;;;;;;9.70;2.92;;;;;;;;;;4384152;32;20096;-77
2021/06/03 07:02:51;;;;;;;17.37;3.20;;;;;;;;;;4376249;32;20069;-78
2021/06/03 07:05:17;;;;;;;9.77;2.60;;;;;;;;;;4375154;32;20104;-76
2021/06/03 07:07:44;;;;;;;11.63;3.05;;;;;;;;;;4388607;32;20070;-73
2021/06/03 07:10:11;;;;;;;13.57;2.80;;;;;;;;;;4367484;32;20108;-77
2021/06/03 07:12:38;;;;;;;7.03;1.90;;;;;;;;;;4375203;32;20325;-76
2021/06/03 07:28:15;;;;;;;11.93;2.70;;;;;;;;;;3851743;37;20090;-77
2021/06/03 07:30:43;;;;;;;4.87;2.08;;;;;;;;;;4377954;32;20444;-77
2021/06/03 07:33:09;;;;;;;4.25;1.85;;;;;;;;;;4400483;32;20077;-78
2021/06/03 07:35:36;;;;;;;5.10;2.12;;;;;;;;;;4375799;32;20092;-76
2021/06/03 07:38:03;;;;;;;11.77;2.60;;;;;;;;;;4390457;32;20153;-72
2021/06/03 07:40:31;;;;;;;9.73;2.75;;;;;;;;;;4380639;32;20492;-72
2021/06/03 07:42:58;;;;;;;4.82;2.20;;;;;;;;;;4391758;32;20068;-75
2021/06/03 07:45:26;;;;;;;7.15;2.20;;;;;;;;;;4370467;32;20061;-74
2021/06/03 07:47:53;;;;;;;8.30;2.80;;;;;;;;;;4351985;32;20150;-75
2021/06/03 07:50:20;;;;;;;7.37;2.35;;;;;;;;;;4375348;32;20086;-76
2021/06/03 07:52:46;;;;;;;6.15;2.10;;;;;;;;;;4366870;32;20077;-71
2021/06/03 07:55:14;;;;;;;6.35;2.37;;;;;;;;;;4382674;32;20167;-72
2021/06/03 07:57:42;;;;;;;7.70;2.30;;;;;;;;;;4360663;32;20070;-73
2021/06/03 08:00:10;;;;;;;9.77;2.70;;;;;;;;;;4355649;32;20093;-71
2021/06/03 08:02:37;;;;;;;9.93;2.40;;;;;;;;;;4361717;32;20057;-73
2021/06/03 08:05:05;;;;;;;4.20;2.20;;;;;;;;;;4376510;32;20183;-72
2021/06/03 08:07:31;;;;;;;6.47;2.25;;;;;;;;;;4390953;32;20166;-72
2021/06/03 08:09:58;;;;;;;7.28;2.12;;;;;;;;;;4346463;32;20077;-74
2021/06/03 08:12:24;;;;;;;7.28;2.47;;;;;;;;;;4404713;32;20084;-72
2021/06/03 08:14:51;;;;;;;5.10;2.33;;;;;;;;;;4374126;32;20409;-71
2021/06/03 08:17:18;;;;;;;7.45;2.37;;;;;;;;;;4374952;32;21039;-72
2021/06/03 08:19:44;;;;;;;4.18;2.10;;;;;;;;;;4409817;32;20070;-71
2021/06/03 08:22:11;;;;;;;6.28;2.22;;;;;;;;;;4393040;32;20100;-71
2021/06/03 08:24:37;;;;;;;4.45;2.50;;;;;;;;;;4392267;32;20080;-72
2021/06/03 08:27:04;;;;;;;4.05;2.17;;;;;;;;;;4385489;32;20077;-72
2021/06/03 08:29:31;;;;;;;3.35;1.87;;;;;;;;;;4378211;32;20105;-71
2021/06/03 08:31:57;;;;;;;3.75;2.33;;;;;;;;;;4387345;32;20085;-72
2021/06/03 08:34:24;;;;;;;4.50;2.17;;;;;;;;;;4378148;32;20113;-73
2021/06/03 08:36:51;;;;;;;2.83;1.98;;;;;;;;;;4365354;32;20070;-71
2021/06/03 08:39:17;;;;;;;4.35;1.92;;;;;;;;;;4362756;32;20077;-70
2021/06/03 08:41:47;;;;;;;5.55;2.50;;;;;;;;;;4349399;32;20101;-70
2021/06/03 08:44:14;;;;;;;5.05;2.28;;;;;;;;;;4347936;32;20062;-70
2021/06/03 08:46:41;;;;;;;4.03;2.10;;;;;;;;;;4378637;32;20429;-73
2021/06/03 08:49:09;;;;;;;7.25;2.10;;;;;;;;;;4350764;32;20177;-71
2021/06/03 08:51:36;;;;;;;3.42;2.15;;;;;;;;;;4354761;32;20098;-73
2021/06/03 08:54:03;;;;;;;4.32;2.45;;;;;;;;;;4361029;32;20097;-74
2021/06/03 08:56:30;;;;;;;8.15;2.12;;;;;;;;;;4344802;32;20076;-74
2021/06/03 08:58:59;;;;;;;4.90;1.80;;;;;;;;;;4375540;32;20062;-74
2021/06/03 09:01:26;;;;;;;6.22;2.20;;;;;;;;;;4341470;32;20503;-72
2021/06/03 09:03:53;;;;;;;4.90;2.35;;;;;;;;;;4356973;32;20071;-72
2021/06/03 09:06:20;;;;;;;11.82;2.47;;;;;;;;;;4375144;32;20206;-73
2021/06/03 09:08:48;;;;;;;6.18;2.78;;;;;;;;;;4365050;32;20090;-74
2021/06/03 09:11:18;;;;;;;14.27;3.30;;;;;;;;;;4351239;32;20057;-74
2021/06/03 09:13:47;;;;;;;6.40;2.40;;;;;;;;;;4340355;32;20055;-78
2021/06/03 09:16:16;;;;;;;3.70;2.28;;;;;;;;;;4363624;32;20066;-74
2021/06/03 09:18:45;;;;;;;3.72;2.50;;;;;;;;;;4364777;32;20586;-72
2021/06/03 09:21:30;;;;;;;6.30;2.35;;;;;;;;;;4364830;32;20460;-73
2021/06/03 09:24:05;;;;;;;8.13;2.70;;;;;;;;;;4353417;32;20070;-71
2021/06/03 09:26:37;;;;;;;6.35;2.20;;;;;;;;;;4339982;32;20559;-73
2021/06/03 09:29:04;;;;;;;6.55;2.12;;;;;;;;;;4346173;32;20114;-71
2021/06/03 09:31:32;;;;;;;7.45;2.78;;;;;;;;;;4370456;32;20190;-71
2021/06/03 09:34:00;;;;;;;5.62;2.03;;;;;;;;;;4370798;32;20088;-71
2021/06/03 09:36:31;;;;;;;4.82;2.35;;;;;;;;;;4349266;32;20200;-70
2021/06/03 09:39:18;;;;;;;5.37;2.80;;;;;;;;;;4354687;32;20446;-70
2021/06/03 09:42:01;;;;;;;12.35;2.50;;;;;;;;;;4375792;32;20082;-68
2021/06/03 09:44:42;;;;;;;4.30;2.20;;;;;;;;;;4362966;32;20077;-68
2021/06/03 09:47:10;;;;;;;8.07;2.47;;;;;;;;;;4371526;32;20084;-71
2021/06/03 09:49:53;;;;;;;10.32;2.62;;;;;;;;;;4373182;32;20082;-71
2021/06/03 09:52:27;;;;;;;9.23;2.70;;;;;;;;;;4369167;32;20098;-70
2021/06/03 09:54:57;;;;;;;20.48;3.47;;;;;;;;;;4362180;32;20081;-71
2021/06/03 09:57:31;;;;;;;23.20;4.10;;;;;;;;;;4365034;32;20070;-72
2021/06/03 09:59:59;;;;;;;9.73;2.62;;;;;;;;;;4370426;32;20070;-69
2021/06/03 10:02:25;;;;;;;9.73;2.80;;;;;;;;;;4371616;32;20106;-71
2021/06/03 10:04:53;;;;;;;11.75;2.87;;;;;;;;;;4359778;32;20070;-70
2021/06/03 10:07:26;;;;;;;7.35;2.67;;;;;;;;;;4361159;32;20058;-69
2021/06/03 10:10:01;;;;;;;6.68;2.55;;;;;;;;;;4352240;32;20071;-66
2021/06/03 10:12:30;;;;;;;5.07;2.37;;;;;;;;;;4375020;32;20263;-69
2021/06/03 10:14:58;;;;;;;7.50;2.87;;;;;;;;;;4340531;32;20090;-68
2021/06/03 10:17:32;;;;;;;5.60;2.17;;;;;;;;;;4351343;32;20066;-68
2021/06/03 10:20:10;;;;;;;5.82;2.20;;;;;;;;;;4369712;32;20162;-71
2021/06/03 10:22:45;;;;;;;17.37;2.53;;;;;;;;;;4371173;32;20063;-69
2021/06/03 10:25:36;;;;;;;7.03;2.60;;;;;;;;;;4347982;32;20101;-68
2021/06/03 10:28:10;;;;;;;7.70;2.20;;;;;;;;;;4366461;32;20104;-71
2021/06/03 10:31:05;;;;;;;5.28;2.15;;;;;;;;;;4359427;32;20086;-68
2021/06/03 10:33:32;;;;;;;11.07;2.42;;;;;;;;;;4360046;32;20110;-71
2021/06/03 10:36:02;;;;;;;5.37;2.12;;;;;;;;;;4337969;32;20085;-67
2021/06/03 10:38:29;;;;;;;7.93;2.40;;;;;;;;;;4361807;32;20089;-69
2021/06/03 10:41:06;;;;;;;6.32;2.80;;;;;;;;;;4372235;32;20128;-69
2021/06/03 10:43:36;;;;;;;8.40;2.58;;;;;;;;;;4368511;32;20108;-72
2021/06/03 10:46:05;;;;;;;5.62;2.03;;;;;;;;;;4373951;32;20112;-68
2021/06/03 10:48:31;;;;;;;10.07;3.08;;;;;;;;;;4360106;32;20113;-69
2021/06/03 10:50:58;;;;;;;9.32;2.92;;;;;;;;;;4373063;32;20195;-67
2021/06/03 10:53:27;;;;;;;10.52;2.58;;;;;;;;;;4364146;32;20077;-69
2021/06/03 10:56:15;;;;;;;9.20;2.50;;;;;;;;;;4355121;32;20074;-70
2021/06/03 10:58:43;;;;;;;2.70;2.03;;;;;;;;;;4360921;32;20077;-69
2021/06/03 11:01:14;;;;;;;10.38;2.47;;;;;;;;;;4348576;32;20089;-70
2021/06/03 11:03:47;;;;;;;11.75;3.05;;;;;;;;;;4350881;32;20106;-69
2021/06/03 11:06:18;;;;;;;7.65;2.12;;;;;;;;;;4370620;32;20086;-70
2021/06/03 11:08:50;;;;;;;20.40;2.97;;;;;;;;;;4362666;32;20166;-69
2021/06/03 11:11:19;;;;;;;4.00;2.15;;;;;;;;;;4349938;32;20054;-68
2021/06/03 11:13:49;;;;;;;7.12;2.30;;;;;;;;;;4367856;32;20067;-70
2021/06/03 11:16:22;;;;;;;9.98;2.60;;;;;;;;;;4369184;32;20077;-69
2021/06/03 11:18:52;;;;;;;3.25;1.55;;;;;;;;;;4363906;32;20070;-68
2021/06/03 11:21:34;;;;;;;10.93;3.20;;;;;;;;;;4374759;32;20090;-69
2021/06/03 11:24:02;;;;;;;11.23;3.20;;;;;;;;;;4366780;32;20186;-68
2021/06/03 11:26:38;;;;;;;8.73;2.97;;;;;;;;;;4370991;32;20089;-67
2021/06/03 11:29:15;;;;;;;7.22;2.40;;;;;;;;;;4386424;32;20085;-67
2021/06/03 11:32:12;;;;;;;1.95;1.40;;;;;;;;;;4344866;32;20066;-69
2021/06/03 11:34:39;;;;;;;5.78;2.60;;;;;;;;;;4351543;32;20438;-77
2021/06/03 11:37:11;;;;;;;9.05;2.65;;;;;;;;;;4370736;32;20070;-68
2021/06/03 11:39:57;;;;;;;4.37;2.40;;;21.40;35.80;;;;;;4344628;32;20505;-72
2021/06/03 11:42:56;;;;;;;6.43;2.30;;;21.30;36.70;;;;;;4355985;32;20097;-70
2021/06/03 11:45:35;;;;;;;8.50;2.60;;;21.40;37.00;;;;;;4385645;32;20125;-65
2021/06/03 11:48:06;;;;;;;8.45;2.25;;;21.40;36.80;;;;;;4359590;32;20448;-70
2021/06/03 11:50:32;;;;;;;10.35;2.65;;;21.40;36.60;;;;;;4372278;32;20085;-68
2021/06/03 11:53:02;;;;;;;12.13;2.70;;;21.50;36.80;;;;;;4371137;32;20183;-70
2021/06/03 11:55:50;;;;;;;4.78;2.37;;;21.40;36.50;;;;;;4384264;32;20484;-70
2021/06/03 11:58:25;;;;;;;10.95;2.40;;;21.30;37.00;;;;;;4356851;32;20077;-65
2021/06/03 12:01:05;;;;;;;8.38;2.30;;;21.50;36.70;;;;;;4389574;32;20065;-68
2021/06/03 12:04:03;;;;;;;5.03;2.33;;;21.50;37.00;;;;;;4348483;32;20452;-69
2021/06/03 12:06:29;;;;;;;6.93;2.47;;;21.60;37.00;;;;;;4387508;32;20070;-64
2021/06/03 12:08:56;;;;;;;9.43;2.42;;;21.50;36.80;;;;;;4374795;32;20084;-65
2021/06/03 12:11:40;;;;;;;8.52;2.53;;;21.40;36.70;;;;;;4371877;32;20108;-67
2021/06/03 12:14:12;;;;;;;9.30;2.72;;;21.50;36.90;;;;;;4371014;32;20077;-70
2021/06/03 12:16:56;;;;;;;7.20;2.47;;;21.50;37.10;;;;;;4372379;32;20200;-71
2021/06/03 12:19:45;;;;;;;4.07;2.42;;;21.50;36.90;;;;;;4350618;32;20125;-72
2021/06/03 12:22:15;;;;;;;4.80;2.40;;;21.40;36.70;;;;;;4376680;32;20157;-72
2021/06/03 12:24:56;;;;;;;7.28;2.40;;;21.70;37.30;;;;;;4368929;32;20082;-75
2021/06/03 12:27:25;;;;;;;7.40;2.70;;;21.90;36.30;;;;;;4335800;32;20117;-69
2021/06/03 12:29:52;;;;;;;15.20;3.25;;;22.10;36.00;;;;;;4359200;32;20092;-70
2021/06/03 12:32:19;;;;;;;7.90;2.67;;;21.90;36.10;;;;;;4336099;32;20522;-68
2021/06/03 12:34:46;;;;;;;11.98;3.20;;;22.40;35.90;;;;;;4359645;32;20099;-67
2021/06/03 12:37:44;;;;;;;9.52;2.60;;;22.40;34.90;;;;;;4359224;32;20077;-71
2021/06/03 12:40:23;;;;;;;9.95;3.03;;;22.70;34.10;;;;;;4356168;32;20519;-74
2021/06/03 12:42:49;;;;;;;8.18;2.55;;;22.50;34.60;;;;;;4360942;32;20081;-74
2021/06/03 12:45:16;;;;;;;16.48;3.40;;;22.10;34.10;;;;;;4367734;32;20149;-71
2021/06/03 12:47:42;;;;;;;11.20;3.00;;;22.20;33.90;;;;;;4361645;32;20165;-68
2021/06/03 12:50:17;;;;;;;8.68;2.65;;;22.30;33.90;;;;;;4371390;32;20193;-70
2021/06/03 12:52:46;;;;;;;12.35;3.40;;;22.90;34.20;;;;;;4338913;32;20116;-74
2021/06/03 12:55:13;;;;;;;16.73;3.60;;;22.70;33.50;;;;;;4362508;32;20264;-70
2021/06/03 12:57:41;;;;;;;17.23;3.00;;;22.30;33.50;;;;;;4353238;32;20070;-68
2021/06/03 13:00:21;;;;;;;10.13;3.08;;;22.50;33.20;;;;;;4364311;32;20101;-71
2021/06/03 13:02:48;;;;;;;11.77;2.90;;;23.00;32.90;;;;;;4372287;32;20070;-68
2021/06/03 13:05:17;;;;;;;14.07;2.47;;;22.80;32.40;;;;;;4356870;32;20055;-66
2021/06/03 13:07:44;;;;;;;14.93;3.50;;;22.80;32.90;;;;;;4349861;32;20107;-70
2021/06/03 13:10:20;;;;;;;23.55;4.05;;;22.40;33.00;;;;;;4370721;32;20077;-69
2021/06/03 13:12:51;;;;;;;8.65;2.55;;;22.30;32.70;;;;;;4335755;32;20182;-72
2021/06/03 13:15:18;;;;;;;11.70;2.87;;;22.70;31.90;;;;;;4371010;32;20176;-68
2021/06/03 13:17:54;;;;;;;10.43;2.85;;;22.60;32.10;;;;;;4347249;32;20532;-70
2021/06/03 13:20:38;;;;;;;;;;;22.70;32.40;;;;;;4370641;32;20070;-72
2021/06/03 13:23:07;;;;;;;10.52;2.62;;;22.30;31.80;;;;;;4363381;32;20440;-72
2021/06/03 13:25:43;;;;;;;5.95;2.47;;;22.30;32.00;;;;;;4358556;32;20097;-70
2021/06/03 13:28:10;;;;;;;9.18;2.95;;;22.50;32.20;;;;;;4370982;32;20543;-72
2021/06/03 13:30:47;;;;;;;4.22;1.92;;;22.40;31.90;;;;;;4323889;32;20101;-72
2021/06/03 13:33:22;;;;;;;8.77;2.40;;;22.70;32.30;;;;;;4359716;32;20568;-71
2021/06/03 13:35:50;;;;;;;14.35;3.00;;;22.50;32.10;;;;;;4352992;32;20121;-68
2021/06/03 13:38:17;;;;;;;7.68;2.30;;;22.80;32.00;;;;;;4372651;32;20234;-66
2021/06/03 13:40:45;;;;;;;14.20;2.87;;;22.60;31.80;;;;;;4359000;32;20105;-74
2021/06/03 13:43:23;;;;;;;5.28;2.12;;;22.40;31.60;;;;;;4333651;32;20140;-72
2021/06/03 13:45:55;;;;;;;9.35;2.55;;;22.40;31.30;;;;;;4351978;32;20077;-73
2021/06/03 13:48:30;;;;;;;8.68;2.78;;;22.70;31.50;;;;;;4359732;32;20089;-71
2021/06/03 13:51:07;;;;;;;8.32;2.17;;;22.50;31.50;;;;;;4358350;32;20198;-74
2021/06/03 13:53:49;;;;;;;4.85;2.30;;;22.60;31.90;;;;;;4359290;32;20127;-73
2021/06/03 13:56:17;;;;;;;11.20;2.87;;;22.40;31.60;;;;;;4369952;32;20089;-71
2021/06/03 13:58:53;;;;;;;10.10;3.22;;;22.00;31.70;;;;;;4368080;32;20504;-74
2021/06/03 14:01:59;;;;;;;7.93;2.53;;;22.20;31.40;;;;;;3807824;37;20087;-77
2021/06/03 14:04:25;;;;;;;8.43;2.30;;;22.80;31.50;;;;;;4359328;32;20089;-77
2021/06/03 14:06:56;;;;;;;11.05;2.83;;;22.50;31.60;;;;;;4350678;32;20066;-67
2021/06/03 14:09:31;;;;;;;7.47;3.12;;;22.30;31.30;;;;;;4342593;32;20173;-66
2021/06/03 14:12:29;;;;;;;7.53;2.58;;;21.90;31.70;;;;;;4360678;32;20081;-75
2021/06/03 14:15:07;;;;;;;6.37;2.08;;;21.80;32.10;;;;;;4336435;32;20092;-70
2021/06/03 14:17:34;;;;;;;4.93;2.20;;;22.20;31.80;;;;;;4355361;32;20142;-68
2021/06/03 14:20:01;;;;;;;4.95;2.33;;;22.30;31.90;;;;;;4346915;32;20167;-70
2021/06/03 14:22:37;;;;;;;14.57;3.17;;;22.10;30.90;;;;;;4342779;32;20086;-72
2021/06/03 14:25:14;;;;;;;13.65;2.90;;;21.90;31.50;;;;;;4352435;32;20110;-72
2021/06/03 14:28:16;;;;;;;3.67;2.15;;;22.20;31.50;;;;;;4365529;32;20093;-72
2021/06/03 14:30:50;;;;;;;8.23;2.50;;;22.20;31.40;;;;;;4334971;32;20174;-76
2021/06/03 14:33:20;;;;;;;8.55;2.30;;;22.20;31.00;;;;;;4361533;32;20057;-81
2021/06/03 14:35:49;;;;;;;9.23;2.25;;;22.20;30.70;;;;;;4346052;32;20074;-70
2021/06/03 14:38:23;;;;;;;8.70;2.40;;;22.10;31.20;;;;;;4361003;32;20144;-75
2021/06/03 14:40:49;;;;;;;8.80;2.55;;;22.00;31.80;;;;;;4366056;32;20089;-75
2021/06/03 14:43:27;;;;;;;4.90;2.47;;;21.80;32.00;;;;;;4370358;32;20515;-76
2021/06/03 14:45:58;;;;;;;5.43;2.10;;;21.50;32.20;;;;;;4337548;32;20078;-68